sensor_id;sensor_type;location;lat;lon;timestamp;P1;durP1;ratioP1;P2;durP2;ratioP2
40088;SDS011;25793;55.706;13.186;2022-12-05T00:03:51;525.47;;;479.92;;
40088;SDS011;25793;55.706;13.186;2022-12-05T00:06:20;523.00;;;477.80;;
40088;SDS011;25793;55.706;13.186;2022-12-05T00:08:47;523.28;;;477.98;;
40088;SDS011;25793;55.706;13.186;2022-12-05T00:11:16;524.08;;;478.67;;
40088;SDS011;25793;55.706;13.186;2022-12-05T00:13:44;529.42;;;484.10;;
40088;SDS011;25793;55.706;13.186;2022-12-05T00:16:13;532.65;;;486.85;;
40088;SDS011;25793;55.706;13.186;2022-12-05T00:18:45;522.58;;;477.98;;
40088;SDS011;25793;55.706;13.186;2022-12-05T00:21:18;524.00;;;479.10;;
40088;SDS011;25793;55.706;13.186;2022-12-05T00:23:46;523.03;;;478.25;;
40088;SDS011;25793;55.706;13.186;2022-12-05T00:26:14;529.93;;;484.93;;
40088;SDS011;25793;55.706;13.186;2022-12-05T00:28:41;527.22;;;482.35;;
40088;SDS011;25793;55.706;13.186;2022-12-05T00:31:09;531.40;;;485.55;;
40088;SDS011;25793;55.706;13.186;2022-12-05T00:33:38;533.65;;;487.45;;
40088;SDS011;25793;55.706;13.186;2022-12-05T00:36:24;523.95;;;478.23;;
40088;SDS011;25793;55.706;13.186;2022-12-05T00:38:53;527.05;;;481.17;;
40088;SDS011;25793;55.706;13.186;2022-12-05T00:41:22;522.88;;;477.58;;
40088;SDS011;25793;55.706;13.186;2022-12-05T00:43:50;527.70;;;482.00;;
40088;SDS011;25793;55.706;13.186;2022-12-05T00:46:22;528.28;;;482.55;;
40088;SDS011;25793;55.706;13.186;2022-12-05T00:48:54;528.33;;;482.38;;
40088;SDS011;25793;55.706;13.186;2022-12-05T00:51:23;526.85;;;481.15;;
40088;SDS011;25793;55.706;13.186;2022-12-05T00:53:56;525.47;;;479.87;;
40088;SDS011;25793;55.706;13.186;2022-12-05T00:56:24;521.23;;;476.53;;
40088;SDS011;25793;55.706;13.186;2022-12-05T00:58:53;523.63;;;478.63;;
40088;SDS011;25793;55.706;13.186;2022-12-05T01:01:21;526.43;;;481.13;;
40088;SDS011;25793;55.706;13.186;2022-12-05T01:03:51;506.33;;;463.03;;
40088;SDS011;25793;55.706;13.186;2022-12-05T01:06:20;513.33;;;469.00;;
40088;SDS011;25793;55.706;13.186;2022-12-05T01:08:48;512.78;;;468.17;;
40088;SDS011;25793;55.706;13.186;2022-12-05T01:11:15;514.83;;;470.02;;
40088;SDS011;25793;55.706;13.186;2022-12-05T01:13:44;513.65;;;468.95;;
40088;SDS011;25793;55.706;13.186;2022-12-05T01:16:19;517.08;;;472.17;;
40088;SDS011;25793;55.706;13.186;2022-12-05T01:18:48;516.20;;;471.33;;
40088;SDS011;25793;55.706;13.186;2022-12-05T01:21:15;515.50;;;470.40;;
40088;SDS011;25793;55.706;13.186;2022-12-05T01:23:42;509.70;;;465.08;;
40088;SDS011;25793;55.706;13.186;2022-12-05T01:26:09;512.08;;;467.20;;
40088;SDS011;25793;55.706;13.186;2022-12-05T01:28:39;507.83;;;463.33;;
40088;SDS011;25793;55.706;13.186;2022-12-05T01:31:28;515.13;;;470.17;;
40088;SDS011;25793;55.706;13.186;2022-12-05T01:33:56;510.40;;;465.65;;
40088;SDS011;25793;55.706;13.186;2022-12-05T01:36:24;513.03;;;468.02;;
40088;SDS011;25793;55.706;13.186;2022-12-05T01:38:52;513.83;;;468.92;;
40088;SDS011;25793;55.706;13.186;2022-12-05T01:41:23;514.22;;;469.42;;
40088;SDS011;25793;55.706;13.186;2022-12-05T01:46:42;517.05;;;471.95;;
40088;SDS011;25793;55.706;13.186;2022-12-05T01:49:12;516.13;;;471.30;;
40088;SDS011;25793;55.706;13.186;2022-12-05T01:51:49;515.45;;;470.70;;
40088;SDS011;25793;55.706;13.186;2022-12-05T01:54:19;512.78;;;468.38;;
40088;SDS011;25793;55.706;13.186;2022-12-05T01:56:49;523.17;;;477.98;;
40088;SDS011;25793;55.706;13.186;2022-12-05T01:59:20;515.83;;;470.83;;
40088;SDS011;25793;55.706;13.186;2022-12-05T02:01:48;523.30;;;477.80;;
40088;SDS011;25793;55.706;13.186;2022-12-05T02:04:16;528.55;;;482.90;;
40088;SDS011;25793;55.706;13.186;2022-12-05T02:06:43;533.50;;;487.30;;
40088;SDS011;25793;55.706;13.186;2022-12-05T02:09:10;526.00;;;480.40;;
40088;SDS011;25793;55.706;13.186;2022-12-05T02:11:40;524.85;;;479.02;;
40088;SDS011;25793;55.706;13.186;2022-12-05T02:14:28;528.80;;;482.52;;
40088;SDS011;25793;55.706;13.186;2022-12-05T02:17:05;525.15;;;479.25;;
40088;SDS011;25793;55.706;13.186;2022-12-05T02:19:51;521.75;;;475.75;;
40088;SDS011;25793;55.706;13.186;2022-12-05T02:30:32;528.17;;;481.88;;
40088;SDS011;25793;55.706;13.186;2022-12-05T02:38:54;524.97;;;478.50;;
40088;SDS011;25793;55.706;13.186;2022-12-05T02:41:26;527.03;;;480.38;;
40088;SDS011;25793;55.706;13.186;2022-12-05T02:46:41;521.75;;;475.23;;
40088;SDS011;25793;55.706;13.186;2022-12-05T02:49:12;528.20;;;482.20;;
40088;SDS011;25793;55.706;13.186;2022-12-05T02:51:45;524.90;;;479.02;;
40088;SDS011;25793;55.706;13.186;2022-12-05T02:54:15;522.10;;;476.48;;
40088;SDS011;25793;55.706;13.186;2022-12-05T02:56:46;527.72;;;481.70;;
40088;SDS011;25793;55.706;13.186;2022-12-05T02:59:14;528.43;;;482.33;;
40088;SDS011;25793;55.706;13.186;2022-12-05T03:01:48;523.80;;;477.70;;
40088;SDS011;25793;55.706;13.186;2022-12-05T03:04:15;517.97;;;472.42;;
40088;SDS011;25793;55.706;13.186;2022-12-05T03:06:56;518.95;;;473.25;;
40088;SDS011;25793;55.706;13.186;2022-12-05T03:09:27;513.83;;;468.60;;
40088;SDS011;25793;55.706;13.186;2022-12-05T03:12:01;517.30;;;471.98;;
40088;SDS011;25793;55.706;13.186;2022-12-05T03:14:40;512.92;;;467.73;;
40088;SDS011;25793;55.706;13.186;2022-12-05T03:17:15;512.80;;;467.40;;
40088;SDS011;25793;55.706;13.186;2022-12-05T03:25:10;518.38;;;472.63;;
40088;SDS011;25793;55.706;13.186;2022-12-05T03:27:43;521.90;;;475.80;;
40088;SDS011;25793;55.706;13.186;2022-12-05T03:30:16;526.45;;;479.80;;
40088;SDS011;25793;55.706;13.186;2022-12-05T03:38:09;521.45;;;475.02;;
40088;SDS011;25793;55.706;13.186;2022-12-05T03:46:04;526.42;;;480.00;;
40088;SDS011;25793;55.706;13.186;2022-12-05T03:48:46;518.00;;;472.38;;
40088;SDS011;25793;55.706;13.186;2022-12-05T03:52:12;526.80;;;481.00;;
40088;SDS011;25793;55.706;13.186;2022-12-05T03:54:28;525.03;;;479.33;;
40088;SDS011;25793;55.706;13.186;2022-12-05T03:59:40;532.65;;;486.35;;
40088;SDS011;25793;55.706;13.186;2022-12-05T04:02:21;538.78;;;491.98;;
40088;SDS011;25793;55.706;13.186;2022-12-05T04:04:53;524.58;;;478.27;;
40088;SDS011;25793;55.706;13.186;2022-12-05T04:07:24;528.53;;;482.25;;
40088;SDS011;25793;55.706;13.186;2022-12-05T04:09:58;524.50;;;478.23;;
40088;SDS011;25793;55.706;13.186;2022-12-05T04:12:30;528.37;;;481.83;;
40088;SDS011;25793;55.706;13.186;2022-12-05T04:15:04;524.72;;;478.33;;
40088;SDS011;25793;55.706;13.186;2022-12-05T04:17:51;519.72;;;473.83;;
40088;SDS011;25793;55.706;13.186;2022-12-05T04:20:26;531.78;;;485.48;;
40088;SDS011;25793;55.706;13.186;2022-12-05T04:23:13;512.83;;;467.65;;
40088;SDS011;25793;55.706;13.186;2022-12-05T04:26:23;524.22;;;478.13;;
40088;SDS011;25793;55.706;13.186;2022-12-05T04:28:43;515.42;;;470.13;;
40088;SDS011;25793;55.706;13.186;2022-12-05T04:31:18;520.35;;;474.80;;
40088;SDS011;25793;55.706;13.186;2022-12-05T04:33:52;519.33;;;474.08;;
40088;SDS011;25793;55.706;13.186;2022-12-05T04:39:08;510.80;;;466.30;;
40088;SDS011;25793;55.706;13.186;2022-12-05T04:41:45;520.08;;;474.10;;
40088;SDS011;25793;55.706;13.186;2022-12-05T04:44:16;512.30;;;467.13;;
40088;SDS011;25793;55.706;13.186;2022-12-05T04:46:47;510.50;;;465.92;;
40088;SDS011;25793;55.706;13.186;2022-12-05T04:49:21;517.25;;;472.33;;
40088;SDS011;25793;55.706;13.186;2022-12-05T04:51:50;507.27;;;463.17;;
40088;SDS011;25793;55.706;13.186;2022-12-05T04:54:22;511.05;;;467.10;;
40088;SDS011;25793;55.706;13.186;2022-12-05T04:56:59;511.52;;;467.02;;
40088;SDS011;25793;55.706;13.186;2022-12-05T04:59:33;504.25;;;460.15;;
40088;SDS011;25793;55.706;13.186;2022-12-05T05:02:05;507.52;;;463.10;;
40088;SDS011;25793;55.706;13.186;2022-12-05T05:04:41;499.27;;;456.08;;
40088;SDS011;25793;55.706;13.186;2022-12-05T05:07:12;498.38;;;455.38;;
40088;SDS011;25793;55.706;13.186;2022-12-05T05:09:40;507.38;;;463.67;;
40088;SDS011;25793;55.706;13.186;2022-12-05T05:12:07;503.08;;;459.02;;
40088;SDS011;25793;55.706;13.186;2022-12-05T05:14:33;499.85;;;455.75;;
40088;SDS011;25793;55.706;13.186;2022-12-05T05:17:00;504.38;;;460.40;;
40088;SDS011;25793;55.706;13.186;2022-12-05T05:19:27;506.92;;;462.65;;
40088;SDS011;25793;55.706;13.186;2022-12-05T05:21:54;507.05;;;463.15;;
40088;SDS011;25793;55.706;13.186;2022-12-05T05:24:21;506.35;;;463.15;;
40088;SDS011;25793;55.706;13.186;2022-12-05T05:26:48;504.60;;;461.40;;
40088;SDS011;25793;55.706;13.186;2022-12-05T05:29:22;502.00;;;459.38;;
40088;SDS011;25793;55.706;13.186;2022-12-05T05:31:49;509.10;;;465.67;;
40088;SDS011;25793;55.706;13.186;2022-12-05T05:34:16;502.08;;;459.08;;
40088;SDS011;25793;55.706;13.186;2022-12-05T05:36:43;500.02;;;457.10;;
40088;SDS011;25793;55.706;13.186;2022-12-05T05:39:10;499.00;;;456.38;;
40088;SDS011;25793;55.706;13.186;2022-12-05T05:41:40;503.20;;;460.00;;
40088;SDS011;25793;55.706;13.186;2022-12-05T05:44:08;505.33;;;462.45;;
40088;SDS011;25793;55.706;13.186;2022-12-05T05:46:35;506.58;;;463.90;;
40088;SDS011;25793;55.706;13.186;2022-12-05T05:49:02;504.58;;;461.48;;
40088;SDS011;25793;55.706;13.186;2022-12-05T05:51:29;507.17;;;464.48;;
40088;SDS011;25793;55.706;13.186;2022-12-05T05:53:56;505.55;;;463.15;;
40088;SDS011;25793;55.706;13.186;2022-12-05T05:56:23;502.33;;;460.77;;
40088;SDS011;25793;55.706;13.186;2022-12-05T05:59:08;503.02;;;460.65;;
40088;SDS011;25793;55.706;13.186;2022-12-05T06:01:35;508.55;;;465.55;;
40088;SDS011;25793;55.706;13.186;2022-12-05T06:04:01;496.73;;;454.60;;
40088;SDS011;25793;55.706;13.186;2022-12-05T06:06:29;505.45;;;463.23;;
40088;SDS011;25793;55.706;13.186;2022-12-05T06:08:55;489.02;;;447.67;;
40088;SDS011;25793;55.706;13.186;2022-12-05T06:11:23;495.55;;;453.75;;
40088;SDS011;25793;55.706;13.186;2022-12-05T06:13:56;497.38;;;455.02;;
40088;SDS011;25793;55.706;13.186;2022-12-05T06:16:26;494.38;;;452.17;;
40088;SDS011;25793;55.706;13.186;2022-12-05T06:18:53;490.52;;;448.15;;
40088;SDS011;25793;55.706;13.186;2022-12-05T06:21:20;491.92;;;449.65;;
40088;SDS011;25793;55.706;13.186;2022-12-05T06:23:48;491.93;;;449.80;;
40088;SDS011;25793;55.706;13.186;2022-12-05T06:26:16;502.58;;;459.80;;
40088;SDS011;25793;55.706;13.186;2022-12-05T06:28:44;497.88;;;455.17;;
40088;SDS011;25793;55.706;13.186;2022-12-05T06:31:12;492.42;;;450.33;;
40088;SDS011;25793;55.706;13.186;2022-12-05T06:33:44;487.65;;;445.75;;
40088;SDS011;25793;55.706;13.186;2022-12-05T06:36:12;489.08;;;446.77;;
40088;SDS011;25793;55.706;13.186;2022-12-05T06:38:44;482.27;;;440.55;;
40088;SDS011;25793;55.706;13.186;2022-12-05T06:41:12;486.98;;;445.63;;
40088;SDS011;25793;55.706;13.186;2022-12-05T06:43:41;481.42;;;439.95;;
40088;SDS011;25793;55.706;13.186;2022-12-05T06:46:09;484.98;;;443.20;;
40088;SDS011;25793;55.706;13.186;2022-12-05T06:48:37;485.67;;;443.88;;
40088;SDS011;25793;55.706;13.186;2022-12-05T06:51:04;491.73;;;448.75;;
40088;SDS011;25793;55.706;13.186;2022-12-05T06:53:32;489.75;;;448.35;;
40088;SDS011;25793;55.706;13.186;2022-12-05T06:55:59;486.00;;;444.60;;
40088;SDS011;25793;55.706;13.186;2022-12-05T06:58:30;484.67;;;442.70;;
40088;SDS011;25793;55.706;13.186;2022-12-05T07:00:57;480.40;;;438.88;;
40088;SDS011;25793;55.706;13.186;2022-12-05T07:03:42;481.42;;;439.83;;
40088;SDS011;25793;55.706;13.186;2022-12-05T07:06:09;467.67;;;426.95;;
40088;SDS011;25793;55.706;13.186;2022-12-05T07:08:36;465.88;;;425.25;;
40088;SDS011;25793;55.706;13.186;2022-12-05T07:11:03;477.58;;;436.10;;
40088;SDS011;25793;55.706;13.186;2022-12-05T07:13:30;480.20;;;438.70;;
40088;SDS011;25793;55.706;13.186;2022-12-05T07:15:56;472.88;;;432.10;;
40088;SDS011;25793;55.706;13.186;2022-12-05T07:18:26;482.20;;;440.80;;
40088;SDS011;25793;55.706;13.186;2022-12-05T07:21:00;475.20;;;433.85;;
40088;SDS011;25793;55.706;13.186;2022-12-05T07:23:38;469.98;;;428.95;;
40088;SDS011;25793;55.706;13.186;2022-12-05T07:26:05;475.02;;;433.40;;
40088;SDS011;25793;55.706;13.186;2022-12-05T07:28:33;476.23;;;434.38;;
40088;SDS011;25793;55.706;13.186;2022-12-05T07:31:04;470.52;;;429.23;;
40088;SDS011;25793;55.706;13.186;2022-12-05T07:33:35;472.27;;;431.55;;
40088;SDS011;25793;55.706;13.186;2022-12-05T07:36:04;474.40;;;432.70;;
40088;SDS011;25793;55.706;13.186;2022-12-05T07:38:32;479.13;;;436.23;;
40088;SDS011;25793;55.706;13.186;2022-12-05T07:41:02;484.27;;;441.42;;
40088;SDS011;25793;55.706;13.186;2022-12-05T07:43:36;477.73;;;435.00;;
40088;SDS011;25793;55.706;13.186;2022-12-05T07:46:04;480.88;;;438.67;;
40088;SDS011;25793;55.706;13.186;2022-12-05T07:48:32;477.60;;;435.10;;
40088;SDS011;25793;55.706;13.186;2022-12-05T07:50:59;476.67;;;434.38;;
40088;SDS011;25793;55.706;13.186;2022-12-05T07:53:27;473.33;;;431.33;;
40088;SDS011;25793;55.706;13.186;2022-12-05T07:55:57;470.17;;;428.33;;
40088;SDS011;25793;55.706;13.186;2022-12-05T07:58:28;476.02;;;433.50;;
40088;SDS011;25793;55.706;13.186;2022-12-05T08:00:56;478.63;;;435.92;;
40088;SDS011;25793;55.706;13.186;2022-12-05T08:03:24;484.70;;;441.75;;
40088;SDS011;25793;55.706;13.186;2022-12-05T08:05:50;480.10;;;437.30;;
40088;SDS011;25793;55.706;13.186;2022-12-05T08:08:17;479.48;;;435.83;;
40088;SDS011;25793;55.706;13.186;2022-12-05T08:10:44;477.70;;;435.08;;
40088;SDS011;25793;55.706;13.186;2022-12-05T08:13:10;475.80;;;432.92;;
40088;SDS011;25793;55.706;13.186;2022-12-05T08:15:37;481.70;;;438.70;;
40088;SDS011;25793;55.706;13.186;2022-12-05T08:18:03;482.00;;;439.00;;
40088;SDS011;25793;55.706;13.186;2022-12-05T08:20:30;485.67;;;442.17;;
40088;SDS011;25793;55.706;13.186;2022-12-05T08:22:57;496.25;;;452.25;;
40088;SDS011;25793;55.706;13.186;2022-12-05T08:25:23;486.60;;;443.40;;
40088;SDS011;25793;55.706;13.186;2022-12-05T08:27:50;504.98;;;460.75;;
40088;SDS011;25793;55.706;13.186;2022-12-05T08:30:17;491.40;;;448.10;;
40088;SDS011;25793;55.706;13.186;2022-12-05T08:32:44;496.63;;;452.83;;
40088;SDS011;25793;55.706;13.186;2022-12-05T08:35:10;495.77;;;452.52;;
40088;SDS011;25793;55.706;13.186;2022-12-05T08:37:37;490.60;;;447.47;;
40088;SDS011;25793;55.706;13.186;2022-12-05T08:40:03;485.00;;;442.10;;
40088;SDS011;25793;55.706;13.186;2022-12-05T08:42:30;489.38;;;446.25;;
40088;SDS011;25793;55.706;13.186;2022-12-05T08:45:00;483.83;;;440.95;;
40088;SDS011;25793;55.706;13.186;2022-12-05T08:47:27;476.25;;;434.02;;
40088;SDS011;25793;55.706;13.186;2022-12-05T08:49:57;480.55;;;437.60;;
40088;SDS011;25793;55.706;13.186;2022-12-05T08:52:24;482.27;;;439.48;;
40088;SDS011;25793;55.706;13.186;2022-12-05T08:54:51;483.08;;;440.52;;
40088;SDS011;25793;55.706;13.186;2022-12-05T08:57:17;480.70;;;436.75;;
40088;SDS011;25793;55.706;13.186;2022-12-05T08:59:44;472.85;;;430.77;;
40088;SDS011;25793;55.706;13.186;2022-12-05T09:02:11;475.55;;;433.98;;
40088;SDS011;25793;55.706;13.186;2022-12-05T09:04:38;474.65;;;432.95;;
40088;SDS011;25793;55.706;13.186;2022-12-05T09:07:18;470.40;;;428.80;;
40088;SDS011;25793;55.706;13.186;2022-12-05T09:09:45;469.63;;;427.83;;
40088;SDS011;25793;55.706;13.186;2022-12-05T09:12:12;464.67;;;422.85;;
40088;SDS011;25793;55.706;13.186;2022-12-05T09:14:40;468.23;;;426.50;;
40088;SDS011;25793;55.706;13.186;2022-12-05T09:17:06;467.75;;;426.33;;
40088;SDS011;25793;55.706;13.186;2022-12-05T09:19:33;473.90;;;431.83;;
40088;SDS011;25793;55.706;13.186;2022-12-05T09:22:00;474.02;;;431.58;;
40088;SDS011;25793;55.706;13.186;2022-12-05T09:27:22;471.65;;;429.58;;
40088;SDS011;25793;55.706;13.186;2022-12-05T09:29:49;478.98;;;434.27;;
40088;SDS011;25793;55.706;13.186;2022-12-05T09:32:16;463.23;;;421.43;;
40088;SDS011;25793;55.706;13.186;2022-12-05T09:34:43;454.10;;;412.70;;
40088;SDS011;25793;55.706;13.186;2022-12-05T09:37:09;452.30;;;411.35;;
40088;SDS011;25793;55.706;13.186;2022-12-05T09:39:56;450.25;;;409.45;;
40088;SDS011;25793;55.706;13.186;2022-12-05T09:42:27;455.58;;;414.67;;
40088;SDS011;25793;55.706;13.186;2022-12-05T09:45:06;463.90;;;422.60;;
40088;SDS011;25793;55.706;13.186;2022-12-05T09:47:51;460.95;;;420.42;;
40088;SDS011;25793;55.706;13.186;2022-12-05T09:50:32;463.07;;;422.07;;
40088;SDS011;25793;55.706;13.186;2022-12-05T09:56:28;455.80;;;414.90;;
40088;SDS011;25793;55.706;13.186;2022-12-05T09:59:01;455.88;;;414.77;;
40088;SDS011;25793;55.706;13.186;2022-12-05T10:13:22;460.85;;;419.60;;
40088;SDS011;25793;55.706;13.186;2022-12-05T10:16:16;469.27;;;427.08;;
40088;SDS011;25793;55.706;13.186;2022-12-05T10:18:54;473.20;;;430.88;;
40088;SDS011;25793;55.706;13.186;2022-12-05T10:21:33;469.05;;;426.83;;
40088;SDS011;25793;55.706;13.186;2022-12-05T11:48:52;467.15;;;425.85;;
40088;SDS011;25793;55.706;13.186;2022-12-05T11:52:07;470.00;;;428.80;;
40088;SDS011;25793;55.706;13.186;2022-12-05T11:58:04;480.85;;;438.65;;
40088;SDS011;25793;55.706;13.186;2022-12-05T12:00:47;470.83;;;429.23;;
40088;SDS011;25793;55.706;13.186;2022-12-05T12:12:19;491.30;;;448.30;;
40088;SDS011;25793;55.706;13.186;2022-12-05T12:33:43;462.85;;;422.25;;
40088;SDS011;25793;55.706;13.186;2022-12-05T12:36:25;456.95;;;417.13;;
40088;SDS011;25793;55.706;13.186;2022-12-05T12:41:50;459.42;;;419.13;;
40088;SDS011;25793;55.706;13.186;2022-12-05T12:46:56;463.30;;;422.77;;
40088;SDS011;25793;55.706;13.186;2022-12-05T12:49:39;455.25;;;415.15;;
40088;SDS011;25793;55.706;13.186;2022-12-05T12:52:19;461.30;;;420.73;;
40088;SDS011;25793;55.706;13.186;2022-12-05T13:03:37;465.95;;;425.77;;
40088;SDS011;25793;55.706;13.186;2022-12-05T13:06:10;460.03;;;420.10;;
40088;SDS011;25793;55.706;13.186;2022-12-05T13:11:11;461.23;;;421.60;;
40088;SDS011;25793;55.706;13.186;2022-12-05T13:13:45;449.52;;;410.30;;
40088;SDS011;25793;55.706;13.186;2022-12-05T13:16:21;453.30;;;414.02;;
40088;SDS011;25793;55.706;13.186;2022-12-05T13:18:52;468.17;;;428.05;;
40088;SDS011;25793;55.706;13.186;2022-12-05T13:21:20;474.43;;;434.27;;
40088;SDS011;25793;55.706;13.186;2022-12-05T13:23:49;459.77;;;420.27;;
40088;SDS011;25793;55.706;13.186;2022-12-05T13:26:20;455.27;;;416.17;;
40088;SDS011;25793;55.706;13.186;2022-12-05T13:28:56;452.93;;;414.13;;
40088;SDS011;25793;55.706;13.186;2022-12-05T13:31:39;459.08;;;420.08;;
40088;SDS011;25793;55.706;13.186;2022-12-05T13:36:56;463.70;;;423.00;;
40088;SDS011;25793;55.706;13.186;2022-12-05T13:39:49;449.77;;;411.38;;
40088;SDS011;25793;55.706;13.186;2022-12-05T13:42:36;455.37;;;416.70;;
40088;SDS011;25793;55.706;13.186;2022-12-05T13:47:46;460.20;;;421.47;;
40088;SDS011;25793;55.706;13.186;2022-12-05T13:53:05;472.70;;;433.20;;
40088;SDS011;25793;55.706;13.186;2022-12-05T13:56:01;462.33;;;423.42;;
40088;SDS011;25793;55.706;13.186;2022-12-05T13:58:50;461.02;;;422.35;;
40088;SDS011;25793;55.706;13.186;2022-12-05T14:03:58;457.10;;;418.38;;
40088;SDS011;25793;55.706;13.186;2022-12-05T14:09:47;452.77;;;414.30;;
40088;SDS011;25793;55.706;13.186;2022-12-05T14:17:25;464.50;;;423.85;;
40088;SDS011;25793;55.706;13.186;2022-12-05T14:23:07;445.48;;;407.63;;
40088;SDS011;25793;55.706;13.186;2022-12-05T14:28:40;440.52;;;402.80;;
40088;SDS011;25793;55.706;13.186;2022-12-05T17:17:44;435.57;;;399.87;;
40088;SDS011;25793;55.706;13.186;2022-12-05T17:20:12;433.63;;;398.02;;
40088;SDS011;25793;55.706;13.186;2022-12-05T17:22:39;445.63;;;408.80;;
40088;SDS011;25793;55.706;13.186;2022-12-05T17:25:16;439.57;;;404.07;;
40088;SDS011;25793;55.706;13.186;2022-12-05T17:27:48;447.85;;;410.95;;
40088;SDS011;25793;55.706;13.186;2022-12-05T17:30:14;434.95;;;399.70;;
40088;SDS011;25793;55.706;13.186;2022-12-05T17:32:41;422.67;;;387.88;;
40088;SDS011;25793;55.706;13.186;2022-12-05T17:35:11;430.87;;;395.23;;
40088;SDS011;25793;55.706;13.186;2022-12-05T17:37:40;419.70;;;385.08;;
40088;SDS011;25793;55.706;13.186;2022-12-05T17:40:07;430.45;;;395.45;;
40088;SDS011;25793;55.706;13.186;2022-12-05T17:42:34;430.85;;;395.45;;
40088;SDS011;25793;55.706;13.186;2022-12-05T17:45:01;418.50;;;383.85;;
40088;SDS011;25793;55.706;13.186;2022-12-05T17:47:28;421.83;;;387.17;;
40088;SDS011;25793;55.706;13.186;2022-12-05T17:49:55;418.70;;;384.40;;
40088;SDS011;25793;55.706;13.186;2022-12-05T17:52:22;432.75;;;397.40;;
40088;SDS011;25793;55.706;13.186;2022-12-05T17:54:49;423.17;;;388.88;;
40088;SDS011;25793;55.706;13.186;2022-12-05T17:57:15;420.65;;;386.52;;
40088;SDS011;25793;55.706;13.186;2022-12-05T17:59:42;419.65;;;385.42;;
40088;SDS011;25793;55.706;13.186;2022-12-05T18:02:09;424.00;;;389.45;;
40088;SDS011;25793;55.706;13.186;2022-12-05T18:04:37;424.95;;;390.33;;
40088;SDS011;25793;55.706;13.186;2022-12-05T18:07:03;427.33;;;392.27;;
40088;SDS011;25793;55.706;13.186;2022-12-05T18:09:30;433.42;;;398.50;;
40088;SDS011;25793;55.706;13.186;2022-12-05T18:11:57;419.73;;;385.45;;
40088;SDS011;25793;55.706;13.186;2022-12-05T18:14:23;420.63;;;385.80;;
40088;SDS011;25793;55.706;13.186;2022-12-05T18:16:52;423.42;;;387.50;;
40088;SDS011;25793;55.706;13.186;2022-12-05T18:19:19;421.63;;;387.52;;
40088;SDS011;25793;55.706;13.186;2022-12-05T18:21:46;429.42;;;394.10;;
40088;SDS011;25793;55.706;13.186;2022-12-05T18:24:13;415.38;;;382.00;;
40088;SDS011;25793;55.706;13.186;2022-12-05T18:26:39;416.15;;;382.35;;
40088;SDS011;25793;55.706;13.186;2022-12-05T18:29:07;410.83;;;377.52;;
40088;SDS011;25793;55.706;13.186;2022-12-05T18:31:33;430.35;;;395.90;;
40088;SDS011;25793;55.706;13.186;2022-12-05T18:34:00;432.80;;;398.10;;
40088;SDS011;25793;55.706;13.186;2022-12-05T18:36:27;419.05;;;385.35;;
40088;SDS011;25793;55.706;13.186;2022-12-05T18:38:56;426.70;;;391.88;;
40088;SDS011;25793;55.706;13.186;2022-12-05T18:41:23;434.25;;;398.80;;
40088;SDS011;25793;55.706;13.186;2022-12-05T18:43:51;432.67;;;397.35;;
40088;SDS011;25793;55.706;13.186;2022-12-05T18:46:18;445.00;;;408.42;;
40088;SDS011;25793;55.706;13.186;2022-12-05T18:48:45;430.05;;;394.77;;
40088;SDS011;25793;55.706;13.186;2022-12-05T18:51:17;432.10;;;396.85;;
40088;SDS011;25793;55.706;13.186;2022-12-05T18:53:46;443.55;;;407.95;;
40088;SDS011;25793;55.706;13.186;2022-12-05T18:56:19;433.67;;;398.77;;
40088;SDS011;25793;55.706;13.186;2022-12-05T18:58:58;437.55;;;402.33;;
40088;SDS011;25793;55.706;13.186;2022-12-05T19:01:30;413.00;;;379.35;;
40088;SDS011;25793;55.706;13.186;2022-12-05T19:04:01;414.25;;;380.33;;
40088;SDS011;25793;55.706;13.186;2022-12-05T19:06:29;411.63;;;377.33;;
40088;SDS011;25793;55.706;13.186;2022-12-05T19:09:03;406.13;;;372.70;;
40088;SDS011;25793;55.706;13.186;2022-12-05T19:11:34;405.43;;;372.33;;
40088;SDS011;25793;55.706;13.186;2022-12-05T19:14:02;410.85;;;377.67;;
40088;SDS011;25793;55.706;13.186;2022-12-05T19:16:30;413.42;;;380.15;;
40088;SDS011;25793;55.706;13.186;2022-12-05T19:19:00;433.75;;;398.73;;
40088;SDS011;25793;55.706;13.186;2022-12-05T19:21:29;432.95;;;398.02;;
40088;SDS011;25793;55.706;13.186;2022-12-05T19:23:57;434.67;;;399.55;;
40088;SDS011;25793;55.706;13.186;2022-12-05T19:26:24;423.83;;;388.48;;
40088;SDS011;25793;55.706;13.186;2022-12-05T19:28:51;426.27;;;390.85;;
40088;SDS011;25793;55.706;13.186;2022-12-05T19:31:19;421.27;;;386.35;;
40088;SDS011;25793;55.706;13.186;2022-12-05T19:33:48;420.98;;;386.50;;
40088;SDS011;25793;55.706;13.186;2022-12-05T19:36:23;419.85;;;385.15;;
40088;SDS011;25793;55.706;13.186;2022-12-05T19:38:52;420.30;;;385.70;;
40088;SDS011;25793;55.706;13.186;2022-12-05T19:41:23;421.95;;;387.55;;
40088;SDS011;25793;55.706;13.186;2022-12-05T19:43:52;415.20;;;380.95;;
40088;SDS011;25793;55.706;13.186;2022-12-05T19:46:20;432.45;;;397.30;;
40088;SDS011;25793;55.706;13.186;2022-12-05T19:48:53;424.83;;;389.73;;
40088;SDS011;25793;55.706;13.186;2022-12-05T19:51:21;433.58;;;397.95;;
40088;SDS011;25793;55.706;13.186;2022-12-05T19:53:48;440.67;;;405.13;;
40088;SDS011;25793;55.706;13.186;2022-12-05T19:56:16;440.85;;;404.77;;
40088;SDS011;25793;55.706;13.186;2022-12-05T19:58:45;442.52;;;406.60;;
40088;SDS011;25793;55.706;13.186;2022-12-05T20:01:19;432.48;;;396.40;;
40088;SDS011;25793;55.706;13.186;2022-12-05T20:03:51;430.13;;;394.63;;
40088;SDS011;25793;55.706;13.186;2022-12-05T20:06:21;429.50;;;393.75;;
40088;SDS011;25793;55.706;13.186;2022-12-05T20:08:49;434.10;;;398.50;;
40088;SDS011;25793;55.706;13.186;2022-12-05T20:11:18;442.08;;;403.88;;
40088;SDS011;25793;55.706;13.186;2022-12-05T20:13:46;454.50;;;417.13;;
40088;SDS011;25793;55.706;13.186;2022-12-05T20:16:14;467.08;;;428.85;;
40088;SDS011;25793;55.706;13.186;2022-12-05T20:18:44;466.40;;;427.13;;
40088;SDS011;25793;55.706;13.186;2022-12-05T20:21:11;464.55;;;425.65;;
40088;SDS011;25793;55.706;13.186;2022-12-05T20:23:40;465.90;;;427.00;;
40088;SDS011;25793;55.706;13.186;2022-12-05T20:28:38;473.98;;;434.58;;
40088;SDS011;25793;55.706;13.186;2022-12-05T20:31:09;464.35;;;425.38;;
40088;SDS011;25793;55.706;13.186;2022-12-05T20:33:39;465.92;;;426.42;;